createdAt,value
2022-09-20T00:02:27.952Z,2.00
2022-09-20T00:04:59.240Z,1.70
2022-09-20T00:07:31.107Z,1.80
2022-09-20T00:10:02.399Z,1.57
2022-09-20T00:12:33.682Z,1.53
2022-09-20T00:15:05.833Z,1.37
2022-09-20T00:17:37.125Z,1.23
2022-09-20T00:20:08.597Z,1.20
2022-09-20T00:22:39.950Z,1.17
2022-09-20T00:25:11.206Z,1.07
2022-09-20T00:27:42.697Z,1.30
2022-09-20T00:30:14.170Z,1.20
2022-09-20T00:32:45.453Z,1.17
2022-09-20T00:35:16.778Z,0.90
2022-09-20T00:37:48.040Z,1.00
2022-09-20T00:40:22.221Z,1.10
2022-09-20T00:42:53.843Z,0.80
2022-09-20T00:45:30.124Z,1.00
2022-09-20T00:50:49.469Z,0.70
2022-09-20T00:56:03.695Z,0.80
2022-09-20T00:58:40.062Z,1.10
2022-09-20T01:01:11.741Z,1.20
2022-09-20T01:03:43.737Z,2.17
2022-09-20T01:06:16.823Z,1.63
2022-09-20T01:08:51.918Z,1.70
2022-09-20T01:11:23.424Z,1.50
2022-09-20T01:13:54.752Z,1.87
2022-09-20T01:16:30.153Z,1.83
2022-09-20T01:19:09.681Z,1.75
2022-09-20T01:21:41.191Z,1.77
2022-09-20T01:24:28.040Z,1.90
2022-09-20T01:27:14.371Z,2.17
2022-09-20T01:29:58.353Z,1.90
2022-09-20T01:32:41.947Z,1.73
2022-09-20T01:35:15.912Z,2.57
2022-09-20T01:38:02.810Z,4.67
2022-09-20T01:40:54.208Z,3.77
2022-09-20T01:43:43.620Z,3.00
2022-09-20T01:46:35.021Z,2.63
2022-09-20T01:49:24.704Z,3.57
2022-09-20T01:52:21.391Z,3.00
2022-09-20T01:55:16.880Z,2.38
2022-09-20T01:58:11.428Z,2.23
2022-09-20T02:01:00.976Z,1.70
2022-09-20T02:03:55.593Z,1.57
2022-09-20T02:07:04.787Z,2.50
2022-09-20T02:10:13.629Z,1.73
2022-09-20T02:12:55.994Z,2.33
2022-09-20T02:16:05.415Z,2.30
2022-09-20T02:18:53.327Z,1.80
2022-09-20T02:21:37.687Z,2.67
2022-09-20T02:27:40.779Z,5.03
2022-09-20T02:30:25.295Z,4.38
2022-09-20T02:33:22.300Z,3.97
2022-09-20T02:36:11.373Z,3.67
2022-09-20T02:38:58.977Z,3.30
2022-09-20T02:41:48.781Z,2.17
2022-09-20T02:44:28.828Z,2.80
2022-09-20T02:47:02.862Z,2.87
2022-09-20T02:49:55.952Z,2.83
2022-09-20T02:52:42.308Z,3.20
2022-09-20T02:55:38.331Z,2.30
2022-09-20T02:58:23.793Z,2.83
2022-09-20T03:01:07.599Z,2.43
2022-09-20T03:03:52.963Z,2.63
2022-09-20T03:06:43.613Z,2.67
2022-09-20T03:09:47.309Z,2.40
2022-09-20T03:12:33.367Z,2.40
2022-09-20T03:15:31.479Z,2.67
2022-09-20T03:18:16.667Z,3.50
2022-09-20T03:21:01.592Z,3.63
2022-09-20T03:23:49.892Z,3.57
2022-09-20T03:26:49.012Z,4.47
2022-09-20T03:29:32.945Z,4.53
2022-09-20T03:32:36.896Z,5.93
2022-09-20T03:35:45.725Z,4.43
2022-09-20T03:38:48.725Z,2.33
2022-09-20T03:41:43.239Z,2.97
2022-09-20T03:44:37.653Z,2.87
2022-09-20T03:47:42.751Z,3.20
2022-09-20T03:50:39.125Z,2.17
2022-09-20T03:53:48.236Z,2.20
2022-09-20T03:56:28.445Z,2.30
2022-09-20T03:59:02.876Z,2.07
2022-09-20T04:02:27.038Z,2.43
2022-09-20T04:05:25.701Z,2.00
2022-09-20T04:08:14.456Z,1.70
2022-09-20T04:11:03.272Z,1.87
2022-09-20T04:13:36.351Z,2.50
2022-09-20T04:16:23.192Z,1.57
2022-09-20T04:19:29.676Z,1.37
2022-09-20T04:22:05.529Z,1.50
2022-09-20T04:24:52.949Z,1.50
2022-09-20T04:27:46.729Z,1.53
2022-09-20T04:30:19.545Z,1.70
2022-09-20T04:33:20.627Z,1.80
2022-09-20T04:36:31.114Z,1.70
2022-09-20T04:39:31.737Z,1.63
2022-09-20T04:42:35.668Z,1.70
2022-09-20T04:45:17.883Z,1.90
2022-09-20T04:48:38.138Z,1.60
2022-09-20T04:51:54.312Z,1.50
2022-09-20T04:54:44.601Z,1.40
2022-09-20T04:57:53.927Z,1.50
2022-09-20T05:00:40.204Z,1.60
2022-09-20T05:03:17.438Z,1.73
2022-09-20T05:06:26.466Z,1.10
2022-09-20T05:09:13.987Z,1.80
2022-09-20T05:11:55.100Z,2.07
2022-09-20T05:15:03.273Z,2.13
2022-09-20T05:17:59.712Z,1.60
2022-09-20T05:20:46.615Z,2.25
2022-09-20T05:23:33.273Z,2.87
2022-09-20T05:26:41.980Z,2.88
2022-09-20T05:29:36.384Z,2.70
2022-09-20T05:32:27.674Z,3.70
2022-09-20T05:35:14.325Z,2.27
2022-09-20T05:37:55.042Z,2.25
2022-09-20T05:40:46.269Z,2.10
2022-09-20T05:43:55.971Z,2.33
2022-09-20T05:46:43.447Z,1.90
2022-09-20T05:49:14.872Z,2.53
2022-09-20T05:51:52.246Z,2.80
2022-09-20T05:54:42.008Z,2.80
2022-09-20T05:57:25.461Z,3.13
2022-09-20T06:00:03.322Z,4.07
2022-09-20T06:02:43.997Z,3.67
2022-09-20T06:05:24.405Z,4.70
2022-09-20T06:08:26.416Z,4.03
2022-09-20T06:11:22.285Z,4.03
2022-09-20T06:14:15.127Z,5.47
2022-09-20T06:17:02.510Z,4.63
2022-09-20T06:19:42.310Z,3.97
2022-09-20T06:22:36.566Z,3.80
2022-09-20T06:25:07.789Z,3.20
2022-09-20T06:27:47.238Z,3.67
2022-09-20T06:30:25.056Z,5.20
2022-09-20T06:33:00.467Z,3.53
2022-09-20T06:35:40.055Z,2.92
2022-09-20T06:38:49.126Z,2.50
2022-09-20T06:41:28.201Z,2.70
2022-09-20T06:44:01.315Z,2.23
2022-09-20T06:46:35.648Z,2.80
2022-09-20T06:49:09.528Z,2.67
2022-09-20T06:51:41.357Z,2.87
2022-09-20T06:54:21.124Z,2.80
2022-09-20T06:56:52.560Z,2.57
2022-09-20T06:59:23.939Z,2.00
2022-09-20T07:01:55.312Z,3.10
2022-09-20T07:04:26.740Z,2.40
2022-09-20T07:07:04.150Z,2.00
2022-09-20T07:09:38.708Z,1.80
2022-09-20T07:12:11.597Z,1.70
2022-09-20T07:14:44.205Z,1.77
2022-09-20T07:17:15.549Z,1.80
2022-09-20T07:19:46.931Z,1.10
2022-09-20T07:22:18.452Z,1.20
2022-09-20T07:24:50.016Z,1.40
2022-09-20T07:27:21.436Z,1.40
2022-09-20T07:29:52.816Z,1.90
2022-09-20T07:32:24.201Z,1.00
2022-09-20T07:34:55.538Z,1.00
2022-09-20T07:37:26.816Z,1.17
2022-09-20T07:39:58.193Z,1.10
2022-09-20T07:42:30.155Z,0.87
2022-09-20T07:45:02.724Z,1.40
2022-09-20T07:47:35.422Z,2.23
2022-09-20T07:50:07.296Z,1.33
2022-09-20T07:52:38.733Z,0.70
2022-09-20T07:55:10.118Z,1.13
2022-09-20T07:57:41.779Z,0.90
2022-09-20T08:00:13.307Z,1.20
2022-09-20T08:02:45.400Z,1.13
2022-09-20T08:05:16.830Z,1.07
2022-09-20T08:07:48.151Z,1.17
2022-09-20T08:10:19.498Z,1.10
2022-09-20T08:15:42.788Z,1.07
2022-09-20T08:18:14.807Z,0.93
2022-09-20T08:20:46.172Z,1.60
2022-09-20T08:23:23.887Z,1.10
2022-09-20T08:25:56.894Z,1.30
2022-09-20T08:28:29.632Z,0.87
2022-09-20T08:31:06.765Z,1.83
2022-09-20T08:33:38.117Z,1.07
2022-09-20T08:36:15.345Z,1.40
2022-09-20T08:41:44.159Z,0.90
2022-09-20T08:44:25.067Z,2.27
2022-09-20T08:47:19.142Z,1.57
2022-09-20T08:49:57.007Z,1.53
2022-09-20T08:52:36.801Z,1.20
2022-09-20T08:55:20.688Z,1.20
2022-09-20T08:57:54.932Z,1.13
2022-09-20T09:00:31.153Z,1.17
2022-09-20T09:03:11.648Z,1.13
2022-09-20T09:05:53.378Z,1.57
2022-09-20T09:08:38.081Z,1.40
2022-09-20T09:11:15.129Z,2.30
2022-09-20T09:14:32.370Z,0.90
2022-09-20T09:17:03.751Z,1.73
2022-09-20T09:19:48.878Z,1.20
2022-09-20T09:22:23.645Z,1.23
2022-09-20T09:25:23.020Z,1.20
2022-09-20T09:28:00.344Z,1.45
2022-09-20T09:30:34.925Z,0.90
2022-09-20T09:33:26.534Z,1.10
2022-09-20T09:36:04.163Z,1.45
2022-09-20T09:38:38.379Z,1.25
2022-09-20T09:41:20.291Z,1.10
2022-09-20T09:44:18.853Z,1.40
2022-09-20T09:46:53.374Z,2.03
2022-09-20T09:49:25.840Z,1.83
2022-09-20T09:51:57.115Z,1.38
2022-09-20T09:54:35.557Z,1.58
2022-09-20T09:57:28.763Z,1.55
2022-09-20T10:00:22.287Z,0.93
2022-09-20T10:03:20.892Z,2.22
2022-09-20T10:06:33.878Z,1.15
2022-09-20T10:09:19.417Z,0.85
2022-09-20T10:12:12.144Z,1.10
2022-09-20T10:14:58.529Z,1.75
2022-09-20T10:17:57.444Z,1.95
2022-09-20T10:20:53.216Z,1.23
2022-09-20T10:24:03.133Z,1.20
2022-09-20T10:27:26.009Z,0.98
2022-09-20T10:30:03.454Z,0.77
2022-09-20T10:32:45.879Z,1.27
2022-09-20T10:35:29.164Z,1.38
2022-09-20T10:38:12.112Z,1.17
2022-09-20T10:41:33.405Z,0.85
2022-09-20T10:44:20.024Z,0.88
2022-09-20T10:47:20.300Z,1.58
2022-09-20T10:49:51.781Z,1.00
2022-09-20T10:52:25.915Z,1.08
2022-09-20T10:55:35.176Z,1.30
2022-09-20T10:58:30.956Z,1.38
2022-09-20T11:01:24.310Z,1.48
2022-09-20T11:04:19.785Z,1.05
2022-09-20T11:07:03.253Z,0.95
2022-09-20T11:09:39.744Z,1.20
2022-09-20T11:12:29.667Z,1.48
2022-09-20T11:15:15.389Z,1.00
2022-09-20T11:18:04.581Z,1.10
2022-09-20T11:20:44.071Z,1.40
2022-09-20T11:23:25.181Z,1.20
2022-09-20T11:26:21.128Z,0.93
2022-09-20T11:28:57.490Z,1.40
2022-09-20T11:31:50.523Z,1.10
2022-09-20T11:34:37.381Z,0.95
2022-09-20T11:37:09.187Z,1.77
2022-09-20T11:39:54.138Z,2.55
2022-09-20T11:42:32.987Z,2.17
2022-09-20T11:45:04.717Z,1.20
2022-09-20T11:47:54.479Z,1.23
2022-09-20T11:50:48.917Z,0.93
2022-09-20T11:53:36.969Z,1.48
2022-09-20T11:56:30.207Z,1.42
2022-09-20T11:59:05.777Z,1.02
2022-09-20T12:01:43.355Z,1.52
2022-09-20T12:04:32.248Z,1.20
2022-09-20T12:07:39.598Z,2.03
2022-09-20T12:10:34.026Z,1.53
2022-09-20T12:13:22.708Z,1.38
2022-09-20T12:16:00.853Z,1.33
2022-09-20T12:18:35.695Z,0.87
2022-09-20T12:21:16.319Z,1.00
2022-09-20T12:23:57.072Z,1.00
2022-09-20T12:26:41.493Z,1.43
2022-09-20T12:29:24.948Z,1.10
2022-09-20T12:32:00.449Z,1.20
2022-09-20T12:34:36.787Z,1.30
2022-09-20T12:37:10.213Z,0.80
2022-09-20T12:39:52.273Z,1.33
2022-09-20T12:42:33.023Z,1.10
2022-09-20T12:45:15.471Z,1.40
2022-09-20T12:47:55.746Z,1.20
2022-09-20T12:50:46.821Z,1.33
2022-09-20T12:53:18.370Z,1.10
2022-09-20T12:56:05.007Z,1.10
2022-09-20T12:58:48.304Z,1.80
2022-09-20T13:01:22.591Z,1.00
2022-09-20T13:03:56.939Z,0.90
2022-09-20T13:06:28.352Z,0.73
2022-09-20T13:09:13.051Z,0.80
2022-09-20T13:11:58.854Z,1.30
2022-09-20T13:14:32.477Z,1.23
2022-09-20T13:17:13.663Z,1.98
2022-09-20T13:19:48.823Z,1.40
2022-09-20T13:22:26.597Z,1.05
2022-09-20T13:25:05.016Z,1.00
2022-09-20T13:28:08.749Z,1.08
2022-09-20T13:30:41.814Z,1.48
2022-09-20T13:33:24.277Z,1.45
2022-09-20T13:35:58.581Z,0.95
2022-09-20T13:38:34.520Z,1.13
2022-09-20T13:43:45.396Z,0.80
2022-09-20T13:46:22.609Z,0.80
2022-09-20T13:49:13.685Z,0.82
2022-09-20T13:51:45.074Z,1.17
2022-09-20T13:54:33.310Z,1.25
2022-09-20T13:57:13.423Z,1.10
2022-09-20T13:59:46.540Z,0.98
2022-09-20T14:02:26.290Z,0.70
2022-09-20T14:05:01.700Z,1.05
2022-09-20T14:07:33.853Z,1.23
2022-09-20T14:10:28.014Z,0.63
2022-09-20T14:13:02.306Z,0.93
2022-09-20T14:15:37.554Z,1.10
2022-09-20T14:18:15.105Z,1.25
2022-09-20T14:20:47.604Z,1.60
2022-09-20T14:23:25.537Z,2.25
2022-09-20T14:26:30.185Z,1.27
2022-09-20T14:29:29.562Z,1.25
2022-09-20T14:32:25.057Z,1.48
2022-09-20T14:34:56.320Z,1.05
2022-09-20T14:37:32.723Z,0.80
2022-09-20T14:40:16.799Z,1.00
2022-09-20T14:43:01.073Z,1.15
2022-09-20T14:45:35.724Z,1.52
2022-09-20T14:48:11.310Z,0.88
2022-09-20T14:51:06.345Z,1.15
2022-09-20T14:53:38.215Z,1.40
2022-09-20T14:56:11.826Z,0.93
2022-09-20T14:59:07.520Z,1.30
2022-09-20T15:01:41.898Z,1.02
2022-09-20T15:04:32.942Z,0.77
2022-09-20T15:07:12.943Z,1.08
2022-09-20T15:09:44.202Z,1.20
2022-09-20T15:12:18.390Z,1.40
2022-09-20T15:14:49.858Z,0.75
2022-09-20T15:17:21.653Z,1.27
2022-09-20T15:19:53.709Z,0.70
2022-09-20T15:22:25.575Z,1.23
2022-09-20T15:24:56.897Z,1.00
2022-09-20T15:27:28.574Z,1.13
2022-09-20T15:29:59.876Z,1.43
2022-09-20T15:32:31.442Z,0.70
2022-09-20T15:35:03.258Z,1.88
2022-09-20T15:37:34.838Z,1.23
2022-09-20T15:40:07.967Z,0.80
2022-09-20T15:42:41.582Z,0.73
2022-09-20T15:45:13.314Z,0.93
2022-09-20T15:47:44.583Z,0.90
2022-09-20T15:50:16.106Z,1.30
2022-09-20T15:52:51.228Z,0.90
2022-09-20T15:55:22.560Z,1.10
2022-09-20T15:57:53.834Z,1.00
2022-09-20T16:00:25.085Z,0.93
2022-09-20T16:02:56.372Z,1.20
2022-09-20T16:05:27.641Z,1.00
2022-09-20T16:07:58.942Z,0.70
2022-09-20T16:10:31.324Z,0.97
2022-09-20T16:13:02.676Z,1.00
2022-09-20T16:15:34.077Z,0.70
2022-09-20T16:18:24.068Z,0.90
2022-09-20T16:20:55.322Z,1.30
2022-09-20T16:23:27.303Z,1.50
2022-09-20T16:25:58.562Z,1.77
2022-09-20T16:28:29.953Z,1.70
2022-09-20T16:31:01.469Z,1.33
2022-09-20T16:33:34.133Z,1.20
2022-09-20T16:36:05.957Z,1.20
2022-09-20T16:38:40.309Z,1.20
2022-09-20T16:41:11.836Z,0.90
2022-09-20T16:43:43.527Z,1.40
2022-09-20T16:46:15.212Z,1.23
2022-09-20T16:48:47.745Z,1.53
2022-09-20T16:51:21.030Z,2.07
2022-09-20T16:53:55.952Z,1.53
2022-09-20T16:56:35.560Z,2.33
2022-09-20T16:59:10.652Z,2.13
2022-09-20T17:01:42.936Z,2.10
2022-09-20T17:04:17.511Z,1.73
2022-09-20T17:06:49.914Z,2.13
2022-09-20T17:09:21.270Z,1.77
2022-09-20T17:11:53.627Z,1.80
2022-09-20T17:14:25.644Z,2.60
2022-09-20T17:16:57.569Z,2.50
2022-09-20T17:19:28.855Z,2.20
2022-09-20T17:22:01.417Z,1.30
2022-09-20T17:24:33.578Z,2.40
2022-09-20T17:27:05.113Z,2.33
2022-09-20T17:29:36.378Z,1.90
2022-09-20T17:32:08.820Z,2.10
2022-09-20T17:34:40.557Z,1.70
2022-09-20T17:37:12.180Z,2.37
2022-09-20T17:39:43.452Z,2.10
2022-09-20T17:42:14.696Z,2.43
2022-09-20T17:44:46.131Z,2.57
2022-09-20T17:47:18.077Z,1.60
2022-09-20T17:49:49.337Z,1.63
2022-09-20T17:52:20.675Z,1.70
2022-09-20T17:54:51.992Z,1.70
2022-09-20T17:57:23.259Z,2.23
2022-09-20T17:59:54.545Z,2.90
2022-09-20T18:02:25.872Z,2.73
2022-09-20T18:04:57.131Z,3.10
2022-09-20T18:07:28.404Z,2.97
2022-09-20T18:09:59.736Z,2.43
2022-09-20T18:12:31.078Z,4.60
2022-09-20T18:15:02.495Z,3.60
2022-09-20T18:17:34.871Z,3.97
2022-09-20T18:20:06.717Z,5.27
2022-09-20T18:22:38.582Z,5.50
2022-09-20T18:25:09.964Z,3.70
2022-09-20T18:27:42.044Z,2.97
2022-09-20T18:30:13.391Z,3.07
2022-09-20T18:32:50.094Z,3.07
2022-09-20T18:35:21.368Z,2.63
2022-09-20T18:37:52.827Z,2.00
2022-09-20T18:40:24.219Z,2.87
2022-09-20T18:43:02.369Z,3.47
2022-09-20T18:45:35.658Z,3.10
2022-09-20T18:48:08.748Z,2.80
2022-09-20T18:50:40.074Z,2.07
2022-09-20T18:53:12.558Z,2.00
2022-09-20T18:55:45.031Z,2.00
2022-09-20T18:58:20.782Z,2.00
2022-09-20T19:01:34.458Z,1.73
2022-09-20T19:04:24.500Z,2.50
2022-09-20T19:07:17.543Z,1.93
2022-09-20T19:10:06.520Z,2.40
2022-09-20T19:12:48.393Z,2.17
2022-09-20T19:15:34.854Z,2.33
2022-09-20T19:18:26.967Z,2.53
2022-09-20T19:21:23.147Z,3.03
2022-09-20T19:24:33.035Z,2.53
2022-09-20T19:27:04.612Z,1.97
2022-09-20T19:29:37.671Z,2.07
2022-09-20T19:32:17.178Z,2.13
2022-09-20T19:34:56.026Z,3.00
2022-09-20T19:37:42.368Z,2.90
2022-09-20T19:40:22.195Z,2.92
2022-09-20T19:43:06.452Z,2.90
2022-09-20T19:46:01.477Z,2.90
2022-09-20T19:48:38.766Z,2.17
2022-09-20T19:51:12.317Z,2.60
2022-09-20T19:53:43.886Z,9.20
2022-09-20T19:56:25.044Z,27.40
2022-09-20T19:58:56.594Z,11.60
2022-09-20T20:01:28.296Z,5.13
2022-09-20T20:03:59.974Z,5.03
2022-09-20T20:06:36.682Z,5.87
2022-09-20T20:09:16.972Z,3.70
2022-09-20T20:12:22.601Z,4.30
2022-09-20T20:15:21.216Z,4.30
2022-09-20T20:18:15.843Z,4.13
2022-09-20T20:20:49.986Z,3.60
2022-09-20T20:23:27.957Z,3.20
2022-09-20T20:26:03.043Z,3.23
2022-09-20T20:28:34.698Z,2.57
2022-09-20T20:31:07.083Z,3.50
2022-09-20T20:33:39.307Z,3.13
2022-09-20T20:36:12.003Z,4.50
2022-09-20T20:38:49.401Z,3.17
2022-09-20T20:41:21.673Z,3.00
2022-09-20T20:43:57.041Z,3.27
2022-09-20T20:46:28.344Z,2.53
2022-09-20T20:48:59.642Z,3.63
2022-09-20T20:51:32.849Z,3.37
2022-09-20T20:54:04.651Z,3.07
2022-09-20T20:56:36.056Z,2.70
2022-09-20T20:59:07.459Z,2.80
2022-09-20T21:01:43.742Z,3.13
2022-09-20T21:06:48.082Z,3.43
2022-09-20T21:09:19.360Z,3.20
2022-09-20T21:11:50.617Z,2.50
2022-09-20T21:14:21.881Z,2.80
2022-09-20T21:16:53.638Z,2.47
2022-09-20T21:19:25.085Z,2.83
2022-09-20T21:21:56.346Z,3.37
2022-09-20T21:24:27.589Z,3.23
2022-09-20T21:26:58.869Z,3.00
2022-09-20T21:29:30.133Z,3.27
2022-09-20T21:32:01.602Z,2.90
2022-09-20T21:34:32.989Z,2.80
2022-09-20T21:37:04.301Z,2.23
2022-09-20T21:39:35.556Z,2.53
2022-09-20T21:42:07.144Z,2.53
2022-09-20T21:44:43.523Z,3.17
2022-09-20T21:47:20.024Z,2.43
2022-09-20T21:49:51.307Z,2.43
2022-09-20T21:52:23.588Z,2.23
2022-09-20T21:54:54.902Z,2.33
2022-09-20T21:57:27.250Z,2.63
2022-09-20T21:59:58.484Z,2.67
2022-09-20T22:02:29.776Z,2.77
2022-09-20T22:05:01.308Z,2.43
2022-09-20T22:07:34.336Z,2.20
2022-09-20T22:10:05.950Z,2.17
2022-09-20T22:12:37.210Z,2.20
2022-09-20T22:15:08.911Z,2.13
2022-09-20T22:17:40.176Z,2.27
2022-09-20T22:20:11.482Z,2.70
2022-09-20T22:22:42.846Z,2.13
2022-09-20T22:25:14.176Z,1.77
2022-09-20T22:27:45.445Z,1.67
2022-09-20T22:30:16.832Z,1.93
2022-09-20T22:32:48.083Z,2.03
2022-09-20T22:35:19.420Z,2.37
2022-09-20T22:37:50.683Z,3.13
2022-09-20T22:40:21.967Z,2.60
2022-09-20T22:42:53.556Z,2.60
2022-09-20T22:45:25.143Z,3.60
2022-09-20T22:47:56.406Z,3.50
2022-09-20T22:50:27.671Z,2.50
2022-09-20T22:52:58.969Z,2.30
2022-09-20T22:55:31.370Z,2.33
2022-09-20T22:58:02.894Z,2.63
2022-09-20T23:00:34.153Z,2.70
2022-09-20T23:03:05.421Z,2.40
2022-09-20T23:05:39.842Z,2.70
2022-09-20T23:08:11.439Z,2.23
2022-09-20T23:10:42.691Z,2.17
2022-09-20T23:13:14.465Z,1.97
2022-09-20T23:15:45.700Z,2.50
2022-09-20T23:18:16.962Z,2.33
2022-09-20T23:20:48.278Z,2.43
2022-09-20T23:23:23.470Z,2.20
2022-09-20T23:25:55.123Z,2.80
2022-09-20T23:28:26.629Z,2.33
2022-09-20T23:31:03.467Z,2.30
2022-09-20T23:33:36.282Z,2.60
2022-09-20T23:36:09.580Z,2.37
2022-09-20T23:38:41.032Z,2.00
2022-09-20T23:41:15.879Z,2.00
2022-09-20T23:43:47.710Z,1.60
2022-09-20T23:46:24.214Z,2.47
2022-09-20T23:48:55.648Z,2.10
2022-09-20T23:51:28.496Z,1.83
2022-09-20T23:53:59.776Z,2.00
2022-09-20T23:56:31.938Z,2.20
2022-09-20T23:59:03.205Z,1.90
